sensor_id;sensor_type;location;lat;lon;timestamp;pressure;altitude;pressure_sealevel;temperature;humidity
22662;BME280;11497;52.222;21.246;2022-12-18T00:01:56;101754.09;;;-4.87;89.54
22662;BME280;11497;52.222;21.246;2022-12-18T00:04:26;101766.06;;;-4.86;89.67
22662;BME280;11497;52.222;21.246;2022-12-18T00:06:54;101765.91;;;-4.89;89.45
22662;BME280;11497;52.222;21.246;2022-12-18T00:09:23;101774.84;;;-4.81;89.57
22662;BME280;11497;52.222;21.246;2022-12-18T00:11:51;101764.66;;;-4.63;89.51
22662;BME280;11497;52.222;21.246;2022-12-18T00:14:19;101768.72;;;-4.67;89.19
22662;BME280;11497;52.222;21.246;2022-12-18T00:16:47;101775.56;;;-4.84;88.97
22662;BME280;11497;52.222;21.246;2022-12-18T00:19:15;101775.13;;;-4.75;88.94
22662;BME280;11497;52.222;21.246;2022-12-18T00:21:43;101768.13;;;-4.79;89.04
22662;BME280;11497;52.222;21.246;2022-12-18T00:24:12;101777.34;;;-4.65;89.06
22662;BME280;11497;52.222;21.246;2022-12-18T00:26:40;101781.72;;;-4.62;88.95
22662;BME280;11497;52.222;21.246;2022-12-18T00:29:12;101782.91;;;-4.56;88.86
22662;BME280;11497;52.222;21.246;2022-12-18T00:31:43;101784.34;;;-4.61;88.53
22662;BME280;11497;52.222;21.246;2022-12-18T00:34:12;101792.97;;;-4.59;88.52
22662;BME280;11497;52.222;21.246;2022-12-18T00:36:41;101789.31;;;-4.64;88.65
22662;BME280;11497;52.222;21.246;2022-12-18T00:39:11;101795.72;;;-4.72;88.63
22662;BME280;11497;52.222;21.246;2022-12-18T00:41:39;101801.69;;;-4.72;88.47
22662;BME280;11497;52.222;21.246;2022-12-18T00:44:26;101809.50;;;-4.52;88.38
22662;BME280;11497;52.222;21.246;2022-12-18T00:46:54;101817.97;;;-4.53;88.45
22662;BME280;11497;52.222;21.246;2022-12-18T00:49:22;101804.97;;;-4.58;88.23
22662;BME280;11497;52.222;21.246;2022-12-18T00:51:50;101802.41;;;-4.58;88.12
22662;BME280;11497;52.222;21.246;2022-12-18T00:54:18;101801.75;;;-4.54;88.36
22662;BME280;11497;52.222;21.246;2022-12-18T00:56:46;101810.53;;;-4.49;88.28
22662;BME280;11497;52.222;21.246;2022-12-18T00:59:18;101806.00;;;-4.54;88.23
22662;BME280;11497;52.222;21.246;2022-12-18T01:01:46;101812.75;;;-4.39;87.95
22662;BME280;11497;52.222;21.246;2022-12-18T01:04:15;101813.16;;;-4.47;87.98
22662;BME280;11497;52.222;21.246;2022-12-18T01:06:45;101823.06;;;-4.53;87.72
22662;BME280;11497;52.222;21.246;2022-12-18T01:09:13;101827.69;;;-4.46;88.10
22662;BME280;11497;52.222;21.246;2022-12-18T01:11:41;101832.25;;;-4.57;87.82
22662;BME280;11497;52.222;21.246;2022-12-18T01:14:11;101835.22;;;-4.49;87.55
22662;BME280;11497;52.222;21.246;2022-12-18T01:16:39;101835.91;;;-4.36;87.45
22662;BME280;11497;52.222;21.246;2022-12-18T01:19:07;101833.34;;;-4.36;87.23
22662;BME280;11497;52.222;21.246;2022-12-18T01:21:34;101830.09;;;-4.49;87.05
22662;BME280;11497;52.222;21.246;2022-12-18T01:24:04;101841.59;;;-4.57;86.82
22662;BME280;11497;52.222;21.246;2022-12-18T01:26:33;101842.97;;;-4.64;87.00
22662;BME280;11497;52.222;21.246;2022-12-18T01:29:01;101845.59;;;-4.46;87.12
22662;BME280;11497;52.222;21.246;2022-12-18T01:31:31;101846.00;;;-4.55;87.18
22662;BME280;11497;52.222;21.246;2022-12-18T01:34:03;101853.00;;;-4.51;87.14
22662;BME280;11497;52.222;21.246;2022-12-18T01:36:36;101848.63;;;-4.53;87.11
22662;BME280;11497;52.222;21.246;2022-12-18T01:39:12;101867.88;;;-4.60;87.33
22662;BME280;11497;52.222;21.246;2022-12-18T01:41:42;101863.56;;;-4.61;87.45
22662;BME280;11497;52.222;21.246;2022-12-18T01:44:58;101867.22;;;-4.56;87.71
22662;BME280;11497;52.222;21.246;2022-12-18T01:47:48;101879.59;;;-4.63;87.91
22662;BME280;11497;52.222;21.246;2022-12-18T01:50:22;101885.75;;;-4.44;88.10
22662;BME280;11497;52.222;21.246;2022-12-18T01:53:14;101893.09;;;-4.50;87.72
22662;BME280;11497;52.222;21.246;2022-12-18T01:55:50;101889.88;;;-4.29;87.70
22662;BME280;11497;52.222;21.246;2022-12-18T01:58:24;101890.03;;;-4.26;87.52
22662;BME280;11497;52.222;21.246;2022-12-18T02:00:56;101884.31;;;-4.39;87.41
22662;BME280;11497;52.222;21.246;2022-12-18T02:03:23;101893.91;;;-4.34;87.44
22662;BME280;11497;52.222;21.246;2022-12-18T02:08:45;101893.50;;;-4.42;87.90
22662;BME280;11497;52.222;21.246;2022-12-18T02:16:59;101904.16;;;-4.33;88.24
22662;BME280;11497;52.222;21.246;2022-12-18T02:22:41;101913.97;;;-4.24;87.93
22662;BME280;11497;52.222;21.246;2022-12-18T02:27:55;101933.78;;;-4.20;87.84
22662;BME280;11497;52.222;21.246;2022-12-18T02:30:29;101926.44;;;-4.30;87.77
22662;BME280;11497;52.222;21.246;2022-12-18T02:33:00;101923.88;;;-4.30;87.92
22662;BME280;11497;52.222;21.246;2022-12-18T02:35:30;101923.75;;;-4.33;87.84
22662;BME280;11497;52.222;21.246;2022-12-18T02:38:03;101930.47;;;-4.36;87.93
22662;BME280;11497;52.222;21.246;2022-12-18T02:40:35;101925.81;;;-4.26;87.63
22662;BME280;11497;52.222;21.246;2022-12-18T02:43:12;101931.56;;;-4.30;87.96
22662;BME280;11497;52.222;21.246;2022-12-18T02:45:56;101938.91;;;-4.20;88.09
22662;BME280;11497;52.222;21.246;2022-12-18T02:48:32;101944.22;;;-4.33;87.88
22662;BME280;11497;52.222;21.246;2022-12-18T02:51:08;101948.72;;;-4.28;88.07
22662;BME280;11497;52.222;21.246;2022-12-18T02:54:18;101950.66;;;-4.24;88.12
22662;BME280;11497;52.222;21.246;2022-12-18T02:56:55;101952.31;;;-4.24;87.83
22662;BME280;11497;52.222;21.246;2022-12-18T02:59:55;101961.03;;;-4.21;87.67
22662;BME280;11497;52.222;21.246;2022-12-18T03:02:53;101965.91;;;-4.09;87.59
22662;BME280;11497;52.222;21.246;2022-12-18T03:05:42;101973.09;;;-4.02;87.36
22662;BME280;11497;52.222;21.246;2022-12-18T03:08:29;101979.50;;;-4.10;86.70
22662;BME280;11497;52.222;21.246;2022-12-18T03:11:03;101974.53;;;-4.23;86.51
22662;BME280;11497;52.222;21.246;2022-12-18T03:13:54;101993.72;;;-4.15;86.67
22662;BME280;11497;52.222;21.246;2022-12-18T03:16:28;101992.69;;;-4.35;86.69
22662;BME280;11497;52.222;21.246;2022-12-18T03:19:02;101995.16;;;-4.37;86.50
22662;BME280;11497;52.222;21.246;2022-12-18T03:21:42;101999.41;;;-4.37;86.39
22662;BME280;11497;52.222;21.246;2022-12-18T03:24:11;101986.22;;;-4.45;86.35
22662;BME280;11497;52.222;21.246;2022-12-18T03:26:43;101991.88;;;-4.50;86.21
22662;BME280;11497;52.222;21.246;2022-12-18T03:29:28;102000.72;;;-4.60;86.14
22662;BME280;11497;52.222;21.246;2022-12-18T03:32:04;102004.47;;;-4.70;86.16
22662;BME280;11497;52.222;21.246;2022-12-18T03:34:34;102012.19;;;-4.68;86.35
22662;BME280;11497;52.222;21.246;2022-12-18T03:37:07;102008.69;;;-4.70;85.80
22662;BME280;11497;52.222;21.246;2022-12-18T03:39:38;102016.69;;;-4.64;85.95
22662;BME280;11497;52.222;21.246;2022-12-18T03:45:18;102022.41;;;-4.68;85.56
22662;BME280;11497;52.222;21.246;2022-12-18T03:53:33;102041.97;;;-4.69;85.38
22662;BME280;11497;52.222;21.246;2022-12-18T03:56:04;102037.91;;;-4.65;85.74
22662;BME280;11497;52.222;21.246;2022-12-18T03:58:39;102030.03;;;-4.53;85.78
22662;BME280;11497;52.222;21.246;2022-12-18T04:01:25;102032.19;;;-4.61;85.53
22662;BME280;11497;52.222;21.246;2022-12-18T04:03:55;102038.88;;;-4.63;85.74
22662;BME280;11497;52.222;21.246;2022-12-18T04:06:24;102045.25;;;-4.71;85.80
22662;BME280;11497;52.222;21.246;2022-12-18T04:08:53;102059.31;;;-4.79;85.68
22662;BME280;11497;52.222;21.246;2022-12-18T04:11:24;102059.31;;;-4.79;85.66
22662;BME280;11497;52.222;21.246;2022-12-18T04:13:57;102054.03;;;-4.82;85.64
22662;BME280;11497;52.222;21.246;2022-12-18T04:16:28;102047.31;;;-4.80;85.20
22662;BME280;11497;52.222;21.246;2022-12-18T04:19:01;102049.72;;;-4.67;84.96
22662;BME280;11497;52.222;21.246;2022-12-18T04:21:33;102057.19;;;-4.86;84.66
22662;BME280;11497;52.222;21.246;2022-12-18T04:24:01;102056.06;;;-4.91;84.64
22662;BME280;11497;52.222;21.246;2022-12-18T04:26:30;102066.63;;;-5.00;84.29
22662;BME280;11497;52.222;21.246;2022-12-18T04:29:12;102076.84;;;-5.15;84.66
22662;BME280;11497;52.222;21.246;2022-12-18T04:31:40;102086.09;;;-5.02;84.94
22662;BME280;11497;52.222;21.246;2022-12-18T04:34:09;102094.72;;;-5.00;84.94
22662;BME280;11497;52.222;21.246;2022-12-18T04:36:43;102095.94;;;-4.93;85.09
22662;BME280;11497;52.222;21.246;2022-12-18T04:39:13;102105.81;;;-4.99;85.14
22662;BME280;11497;52.222;21.246;2022-12-18T04:41:41;102099.56;;;-5.05;85.05
22662;BME280;11497;52.222;21.246;2022-12-18T04:44:10;102105.81;;;-4.99;85.15
22662;BME280;11497;52.222;21.246;2022-12-18T04:46:37;102111.97;;;-4.96;85.39
22662;BME280;11497;52.222;21.246;2022-12-18T04:49:06;102107.94;;;-4.92;85.35
22662;BME280;11497;52.222;21.246;2022-12-18T04:51:33;102116.03;;;-4.99;85.21
22662;BME280;11497;52.222;21.246;2022-12-18T04:54:01;102124.84;;;-4.94;84.78
22662;BME280;11497;52.222;21.246;2022-12-18T04:56:31;102119.63;;;-5.11;85.28
22662;BME280;11497;52.222;21.246;2022-12-18T04:58:59;102117.59;;;-5.02;85.26
22662;BME280;11497;52.222;21.246;2022-12-18T05:01:27;102119.16;;;-4.74;85.12
22662;BME280;11497;52.222;21.246;2022-12-18T05:04:02;102125.53;;;-4.82;84.97
22662;BME280;11497;52.222;21.246;2022-12-18T05:06:30;102127.47;;;-4.93;84.83
22662;BME280;11497;52.222;21.246;2022-12-18T05:08:58;102128.78;;;-4.99;84.51
22662;BME280;11497;52.222;21.246;2022-12-18T05:11:26;102131.69;;;-4.93;84.64
22662;BME280;11497;52.222;21.246;2022-12-18T05:13:54;102141.22;;;-4.91;84.68
22662;BME280;11497;52.222;21.246;2022-12-18T05:16:21;102142.78;;;-4.78;84.57
22662;BME280;11497;52.222;21.246;2022-12-18T05:18:49;102142.25;;;-5.02;84.18
22662;BME280;11497;52.222;21.246;2022-12-18T05:21:17;102152.47;;;-5.17;84.30
22662;BME280;11497;52.222;21.246;2022-12-18T05:23:45;102152.84;;;-5.25;84.38
22662;BME280;11497;52.222;21.246;2022-12-18T05:26:17;102161.44;;;-5.09;84.69
22662;BME280;11497;52.222;21.246;2022-12-18T05:28:45;102160.59;;;-5.24;84.74
22662;BME280;11497;52.222;21.246;2022-12-18T05:31:14;102161.56;;;-5.22;84.69
22662;BME280;11497;52.222;21.246;2022-12-18T05:33:42;102173.16;;;-5.12;85.22
22662;BME280;11497;52.222;21.246;2022-12-18T05:36:11;102172.81;;;-5.04;85.25
22662;BME280;11497;52.222;21.246;2022-12-18T05:38:39;102178.72;;;-5.05;85.13
22662;BME280;11497;52.222;21.246;2022-12-18T05:41:08;102186.19;;;-5.08;85.18
22662;BME280;11497;52.222;21.246;2022-12-18T05:43:38;102191.75;;;-5.00;85.12
22662;BME280;11497;52.222;21.246;2022-12-18T05:46:08;102177.50;;;-4.96;85.08
22662;BME280;11497;52.222;21.246;2022-12-18T05:48:38;102180.91;;;-5.11;84.92
22662;BME280;11497;52.222;21.246;2022-12-18T05:51:12;102192.44;;;-5.03;84.83
22662;BME280;11497;52.222;21.246;2022-12-18T05:53:41;102188.84;;;-4.91;85.12
22662;BME280;11497;52.222;21.246;2022-12-18T05:56:13;102197.91;;;-4.96;85.14
22662;BME280;11497;52.222;21.246;2022-12-18T05:58:42;102213.78;;;-4.87;85.16
22662;BME280;11497;52.222;21.246;2022-12-18T06:01:16;102212.91;;;-4.88;84.94
22662;BME280;11497;52.222;21.246;2022-12-18T06:03:45;102214.47;;;-5.05;84.62
22662;BME280;11497;52.222;21.246;2022-12-18T06:06:23;102212.34;;;-5.12;84.10
22662;BME280;11497;52.222;21.246;2022-12-18T06:08:51;102218.34;;;-4.96;84.25
22662;BME280;11497;52.222;21.246;2022-12-18T06:11:21;102227.66;;;-5.12;83.76
22662;BME280;11497;52.222;21.246;2022-12-18T06:13:55;102234.66;;;-5.37;83.97
22662;BME280;11497;52.222;21.246;2022-12-18T06:16:26;102229.72;;;-5.34;84.31
22662;BME280;11497;52.222;21.246;2022-12-18T06:19:03;102230.94;;;-5.42;84.35
22662;BME280;11497;52.222;21.246;2022-12-18T06:21:31;102242.63;;;-5.46;84.46
22662;BME280;11497;52.222;21.246;2022-12-18T06:24:00;102237.44;;;-5.47;84.42
22662;BME280;11497;52.222;21.246;2022-12-18T06:26:28;102245.56;;;-5.40;84.51
22662;BME280;11497;52.222;21.246;2022-12-18T06:28:56;102251.16;;;-5.45;84.77
22662;BME280;11497;52.222;21.246;2022-12-18T06:31:25;102252.72;;;-5.47;84.65
22662;BME280;11497;52.222;21.246;2022-12-18T06:33:53;102252.97;;;-5.57;84.99
22662;BME280;11497;52.222;21.246;2022-12-18T06:36:21;102256.00;;;-5.63;84.93
22662;BME280;11497;52.222;21.246;2022-12-18T06:38:49;102262.94;;;-5.47;84.59
22662;BME280;11497;52.222;21.246;2022-12-18T06:41:19;102280.59;;;-5.37;84.78
22662;BME280;11497;52.222;21.246;2022-12-18T06:43:48;102285.50;;;-5.40;84.66
22662;BME280;11497;52.222;21.246;2022-12-18T06:46:16;102291.13;;;-5.59;84.37
22662;BME280;11497;52.222;21.246;2022-12-18T06:48:48;102300.44;;;-5.59;85.25
22662;BME280;11497;52.222;21.246;2022-12-18T06:51:21;102297.09;;;-5.58;84.92
22662;BME280;11497;52.222;21.246;2022-12-18T06:53:49;102291.41;;;-5.54;85.21
22662;BME280;11497;52.222;21.246;2022-12-18T06:56:17;102305.84;;;-5.55;85.33
22662;BME280;11497;52.222;21.246;2022-12-18T06:58:45;102305.44;;;-5.48;85.61
22662;BME280;11497;52.222;21.246;2022-12-18T07:01:13;102306.91;;;-5.51;85.43
22662;BME280;11497;52.222;21.246;2022-12-18T07:03:42;102310.81;;;-5.43;85.62
22662;BME280;11497;52.222;21.246;2022-12-18T07:06:17;102312.50;;;-5.44;85.49
22662;BME280;11497;52.222;21.246;2022-12-18T07:08:46;102316.94;;;-5.54;85.62
22662;BME280;11497;52.222;21.246;2022-12-18T07:11:15;102324.38;;;-5.44;85.85
22662;BME280;11497;52.222;21.246;2022-12-18T07:13:44;102330.84;;;-5.49;85.79
22662;BME280;11497;52.222;21.246;2022-12-18T07:16:15;102334.97;;;-5.51;85.69
22662;BME280;11497;52.222;21.246;2022-12-18T07:18:52;102339.00;;;-5.55;85.83
22662;BME280;11497;52.222;21.246;2022-12-18T07:21:22;102352.25;;;-5.47;86.00
22662;BME280;11497;52.222;21.246;2022-12-18T07:23:51;102355.00;;;-5.44;86.11
22662;BME280;11497;52.222;21.246;2022-12-18T07:26:20;102355.00;;;-5.44;85.70
22662;BME280;11497;52.222;21.246;2022-12-18T07:28:48;102358.13;;;-5.07;85.83
22662;BME280;11497;52.222;21.246;2022-12-18T07:31:21;102345.56;;;-5.32;85.69
22662;BME280;11497;52.222;21.246;2022-12-18T07:33:50;102368.13;;;-5.25;85.95
22662;BME280;11497;52.222;21.246;2022-12-18T07:36:19;102362.16;;;-5.11;85.99
22662;BME280;11497;52.222;21.246;2022-12-18T07:38:50;102359.91;;;-4.78;86.09
22662;BME280;11497;52.222;21.246;2022-12-18T07:41:20;102365.81;;;-4.64;85.77
22662;BME280;11497;52.222;21.246;2022-12-18T07:43:48;102358.06;;;-4.66;85.38
22662;BME280;11497;52.222;21.246;2022-12-18T07:46:17;102367.72;;;-4.75;85.14
22662;BME280;11497;52.222;21.246;2022-12-18T07:48:45;102370.38;;;-4.88;84.86
22662;BME280;11497;52.222;21.246;2022-12-18T07:51:17;102372.31;;;-4.84;84.82
22662;BME280;11497;52.222;21.246;2022-12-18T07:53:46;102380.50;;;-4.75;84.76
22662;BME280;11497;52.222;21.246;2022-12-18T07:56:19;102378.03;;;-4.74;84.47
22662;BME280;11497;52.222;21.246;2022-12-18T07:58:58;102381.84;;;-4.67;84.54
22662;BME280;11497;52.222;21.246;2022-12-18T08:01:27;102387.69;;;-4.55;84.57
22662;BME280;11497;52.222;21.246;2022-12-18T08:03:56;102396.34;;;-4.53;84.26
22662;BME280;11497;52.222;21.246;2022-12-18T08:06:24;102397.50;;;-4.48;83.87
22662;BME280;11497;52.222;21.246;2022-12-18T08:08:54;102407.63;;;-4.49;84.01
22662;BME280;11497;52.222;21.246;2022-12-18T08:11:24;102404.47;;;-4.45;84.06
22662;BME280;11497;52.222;21.246;2022-12-18T08:13:53;102408.09;;;-4.42;84.03
22662;BME280;11497;52.222;21.246;2022-12-18T08:16:21;102411.81;;;-4.07;83.94
22662;BME280;11497;52.222;21.246;2022-12-18T08:18:52;102415.97;;;-3.94;83.40
22662;BME280;11497;52.222;21.246;2022-12-18T08:21:26;102413.16;;;-3.99;83.05
22662;BME280;11497;52.222;21.246;2022-12-18T08:23:56;102413.50;;;-3.93;82.84
22662;BME280;11497;52.222;21.246;2022-12-18T08:26:27;102418.81;;;-3.90;82.55
22662;BME280;11497;52.222;21.246;2022-12-18T08:28:57;102421.50;;;-3.87;82.19
22662;BME280;11497;52.222;21.246;2022-12-18T08:31:26;102434.31;;;-3.87;81.90
22662;BME280;11497;52.222;21.246;2022-12-18T08:33:56;102434.03;;;-3.77;82.10
22662;BME280;11497;52.222;21.246;2022-12-18T08:36:25;102439.59;;;-3.54;82.19
22662;BME280;11497;52.222;21.246;2022-12-18T08:38:54;102436.00;;;-3.27;82.23
22662;BME280;11497;52.222;21.246;2022-12-18T08:41:21;102443.50;;;-2.99;81.66
22662;BME280;11497;52.222;21.246;2022-12-18T08:43:50;102442.25;;;-3.22;80.96
22662;BME280;11497;52.222;21.246;2022-12-18T08:46:39;102452.22;;;-3.12;80.67
22662;BME280;11497;52.222;21.246;2022-12-18T08:49:08;102454.16;;;-3.08;80.09
22662;BME280;11497;52.222;21.246;2022-12-18T08:51:37;102458.31;;;-2.93;79.84
22662;BME280;11497;52.222;21.246;2022-12-18T08:54:05;102458.66;;;-2.87;79.93
22662;BME280;11497;52.222;21.246;2022-12-18T08:56:33;102466.00;;;-3.10;79.17
22662;BME280;11497;52.222;21.246;2022-12-18T08:59:02;102461.25;;;-3.33;79.10
22662;BME280;11497;52.222;21.246;2022-12-18T09:01:30;102457.06;;;-3.47;79.40
22662;BME280;11497;52.222;21.246;2022-12-18T09:03:59;102466.44;;;-3.48;79.72
22662;BME280;11497;52.222;21.246;2022-12-18T09:06:26;102465.00;;;-3.57;80.01
22662;BME280;11497;52.222;21.246;2022-12-18T09:08:54;102472.31;;;-3.34;80.44
22662;BME280;11497;52.222;21.246;2022-12-18T09:11:25;102472.22;;;-3.36;80.48
22662;BME280;11497;52.222;21.246;2022-12-18T09:13:55;102471.47;;;-3.49;80.58
22662;BME280;11497;52.222;21.246;2022-12-18T09:16:24;102468.72;;;-3.52;80.71
22662;BME280;11497;52.222;21.246;2022-12-18T09:19:00;102473.28;;;-3.32;80.95
22662;BME280;11497;52.222;21.246;2022-12-18T09:21:33;102472.38;;;-3.18;81.09
22662;BME280;11497;52.222;21.246;2022-12-18T09:24:04;102486.16;;;-3.16;80.58
22662;BME280;11497;52.222;21.246;2022-12-18T09:26:35;102478.28;;;-2.88;80.45
22662;BME280;11497;52.222;21.246;2022-12-18T09:29:04;102481.34;;;-2.79;81.24
22662;BME280;11497;52.222;21.246;2022-12-18T09:31:35;102473.59;;;-2.64;80.92
22662;BME280;11497;52.222;21.246;2022-12-18T09:34:03;102476.81;;;-2.36;80.48
22662;BME280;11497;52.222;21.246;2022-12-18T09:36:30;102480.19;;;-2.37;80.10
22662;BME280;11497;52.222;21.246;2022-12-18T09:38:58;102480.63;;;-2.11;79.90
22662;BME280;11497;52.222;21.246;2022-12-18T09:47:16;102477.28;;;-2.26;78.60
22662;BME280;11497;52.222;21.246;2022-12-18T09:49:47;102481.94;;;-2.36;78.35
22662;BME280;11497;52.222;21.246;2022-12-18T09:52:29;102490.13;;;-2.26;78.09
22662;BME280;11497;52.222;21.246;2022-12-18T09:58:05;102487.66;;;-1.91;78.50
22662;BME280;11497;52.222;21.246;2022-12-18T10:00:35;102486.78;;;-1.75;77.52
22662;BME280;11497;52.222;21.246;2022-12-18T10:03:12;102489.03;;;-1.63;77.25
22662;BME280;11497;52.222;21.246;2022-12-18T10:08:51;102488.25;;;-1.62;76.34
22662;BME280;11497;52.222;21.246;2022-12-18T10:11:33;102484.78;;;-1.81;76.05
22662;BME280;11497;52.222;21.246;2022-12-18T10:14:30;102491.09;;;-1.74;76.00
22662;BME280;11497;52.222;21.246;2022-12-18T10:25:50;102490.69;;;-1.48;75.34
22662;BME280;11497;52.222;21.246;2022-12-18T10:28:20;102494.44;;;-1.41;75.17
22662;BME280;11497;52.222;21.246;2022-12-18T10:30:49;102498.63;;;-1.43;75.33
22662;BME280;11497;52.222;21.246;2022-12-18T10:33:20;102510.06;;;-1.19;75.59
22662;BME280;11497;52.222;21.246;2022-12-18T10:35:51;102510.31;;;-1.32;74.89
22662;BME280;11497;52.222;21.246;2022-12-18T10:38:26;102503.63;;;-1.11;74.81
22662;BME280;11497;52.222;21.246;2022-12-18T10:41:44;102503.19;;;-1.02;75.04
22662;BME280;11497;52.222;21.246;2022-12-18T10:43:50;102503.50;;;-0.77;74.63
22662;BME280;11497;52.222;21.246;2022-12-18T10:46:36;102498.19;;;-0.99;73.74
22662;BME280;11497;52.222;21.246;2022-12-18T10:49:04;102493.34;;;-0.93;73.72
22662;BME280;11497;52.222;21.246;2022-12-18T10:51:36;102497.44;;;-0.96;73.48
22662;BME280;11497;52.222;21.246;2022-12-18T10:54:25;102499.50;;;-0.89;73.63
22662;BME280;11497;52.222;21.246;2022-12-18T10:56:55;102506.44;;;-0.69;73.63
22662;BME280;11497;52.222;21.246;2022-12-18T11:00:19;102504.78;;;-1.04;72.60
22662;BME280;11497;52.222;21.246;2022-12-18T11:02:48;102511.47;;;-0.90;73.50
22662;BME280;11497;52.222;21.246;2022-12-18T11:05:32;102504.50;;;-1.10;73.74
22662;BME280;11497;52.222;21.246;2022-12-18T11:08:00;102505.44;;;-0.90;73.45
22662;BME280;11497;52.222;21.246;2022-12-18T11:10:38;102508.47;;;-0.99;72.87
22662;BME280;11497;52.222;21.246;2022-12-18T11:13:20;102504.78;;;-1.04;73.32
22662;BME280;11497;52.222;21.246;2022-12-18T11:15:49;102511.66;;;-0.85;73.79
22662;BME280;11497;52.222;21.246;2022-12-18T11:18:29;102523.41;;;-1.26;73.62
22662;BME280;11497;52.222;21.246;2022-12-18T11:21:07;102529.16;;;-1.14;74.06
22662;BME280;11497;52.222;21.246;2022-12-18T11:23:44;102524.91;;;-1.13;73.37
22662;BME280;11497;52.222;21.246;2022-12-18T11:26:14;102528.16;;;-0.99;72.90
22662;BME280;11497;52.222;21.246;2022-12-18T11:28:54;102538.72;;;-1.11;73.46
22662;BME280;11497;52.222;21.246;2022-12-18T11:31:35;102539.44;;;-1.14;73.17
22662;BME280;11497;52.222;21.246;2022-12-18T11:34:14;102529.97;;;-1.15;73.42
22662;BME280;11497;52.222;21.246;2022-12-18T11:37:03;102518.38;;;-1.07;73.64
22662;BME280;11497;52.222;21.246;2022-12-18T11:50:14;102526.97;;;-1.06;72.28
22662;BME280;11497;52.222;21.246;2022-12-18T11:52:44;102530.94;;;-1.13;73.11
22662;BME280;11497;52.222;21.246;2022-12-18T11:58:57;102520.06;;;-0.89;73.39
22662;BME280;11497;52.222;21.246;2022-12-18T12:01:32;102526.25;;;-1.04;73.14
22662;BME280;11497;52.222;21.246;2022-12-18T12:07:24;102534.25;;;-0.97;72.17
22662;BME280;11497;52.222;21.246;2022-12-18T12:21:13;102552.94;;;-1.18;72.61
22662;BME280;11497;52.222;21.246;2022-12-18T12:26:52;102571.81;;;-1.35;73.44
22662;BME280;11497;52.222;21.246;2022-12-18T12:35:00;102554.50;;;-1.55;72.97
22662;BME280;11497;52.222;21.246;2022-12-18T12:37:55;102555.97;;;-1.60;73.78
22662;BME280;11497;52.222;21.246;2022-12-18T12:40:29;102554.50;;;-1.55;73.65
22662;BME280;11497;52.222;21.246;2022-12-18T12:46:18;102557.59;;;-1.79;73.90
22662;BME280;11497;52.222;21.246;2022-12-18T12:48:56;102572.66;;;-1.69;74.47
22662;BME280;11497;52.222;21.246;2022-12-18T12:51:43;102578.38;;;-1.74;74.92
22662;BME280;11497;52.222;21.246;2022-12-18T12:54:19;102579.09;;;-1.77;74.85
22662;BME280;11497;52.222;21.246;2022-12-18T12:56:54;102582.34;;;-1.63;75.00
22662;BME280;11497;52.222;21.246;2022-12-18T13:08:08;102590.31;;;-2.07;75.55
22662;BME280;11497;52.222;21.246;2022-12-18T13:10:39;102593.13;;;-2.03;75.25
22662;BME280;11497;52.222;21.246;2022-12-18T13:13:16;102596.25;;;-2.08;75.16
22662;BME280;11497;52.222;21.246;2022-12-18T13:16:06;102599.28;;;-2.15;75.98
22662;BME280;11497;52.222;21.246;2022-12-18T13:18:35;102606.50;;;-2.08;75.73
22662;BME280;11497;52.222;21.246;2022-12-18T13:21:48;102615.47;;;-2.32;75.99
22662;BME280;11497;52.222;21.246;2022-12-18T13:24:26;102610.00;;;-2.39;75.83
22662;BME280;11497;52.222;21.246;2022-12-18T13:26:56;102621.88;;;-2.55;76.81
22662;BME280;11497;52.222;21.246;2022-12-18T13:29:44;102625.13;;;-2.43;76.62
22662;BME280;11497;52.222;21.246;2022-12-18T13:32:26;102616.72;;;-2.41;77.16
22662;BME280;11497;52.222;21.246;2022-12-18T13:37:54;102628.41;;;-2.46;77.96
22662;BME280;11497;52.222;21.246;2022-12-18T13:43:22;102636.97;;;-2.30;77.77
22662;BME280;11497;52.222;21.246;2022-12-18T13:46:04;102626.56;;;-2.48;77.82
22662;BME280;11497;52.222;21.246;2022-12-18T13:48:36;102630.19;;;-2.45;78.01
22662;BME280;11497;52.222;21.246;2022-12-18T13:51:10;102632.22;;;-2.54;78.25
22662;BME280;11497;52.222;21.246;2022-12-18T13:53:43;102625.25;;;-2.56;78.21
22662;BME280;11497;52.222;21.246;2022-12-18T13:56:26;102628.06;;;-2.52;78.13
22662;BME280;11497;52.222;21.246;2022-12-18T13:59:16;102626.66;;;-2.47;77.63
22662;BME280;11497;52.222;21.246;2022-12-18T14:04:29;102631.66;;;-2.64;78.08
22662;BME280;11497;52.222;21.246;2022-12-18T14:07:15;102639.88;;;-2.70;78.69
22662;BME280;11497;52.222;21.246;2022-12-18T14:10:02;102653.31;;;-2.74;78.28
22662;BME280;11497;52.222;21.246;2022-12-18T14:12:51;102652.25;;;-2.92;78.73
22662;BME280;11497;52.222;21.246;2022-12-18T14:15:34;102660.84;;;-2.92;79.05
22662;BME280;11497;52.222;21.246;2022-12-18T14:18:24;102656.25;;;-2.97;79.61
22662;BME280;11497;52.222;21.246;2022-12-18T14:20:56;102652.38;;;-3.06;79.88
22662;BME280;11497;52.222;21.246;2022-12-18T14:26:03;102656.84;;;-3.02;80.47
22662;BME280;11497;52.222;21.246;2022-12-18T14:28:46;102659.41;;;-3.02;80.56
22662;BME280;11497;52.222;21.246;2022-12-18T14:31:22;102666.41;;;-2.84;80.36
22662;BME280;11497;52.222;21.246;2022-12-18T14:33:50;102661.03;;;-3.04;80.59
22662;BME280;11497;52.222;21.246;2022-12-18T14:36:22;102669.22;;;-2.94;81.29
22662;BME280;11497;52.222;21.246;2022-12-18T14:38:58;102659.59;;;-2.98;81.24
22662;BME280;11497;52.222;21.246;2022-12-18T14:41:27;102658.00;;;-2.96;81.09
22662;BME280;11497;52.222;21.246;2022-12-18T14:44:06;102668.63;;;-2.90;80.92
22662;BME280;11497;52.222;21.246;2022-12-18T14:46:35;102664.91;;;-3.10;81.38
22662;BME280;11497;52.222;21.246;2022-12-18T14:49:31;102664.72;;;-3.13;81.25
22662;BME280;11497;52.222;21.246;2022-12-18T14:52:03;102667.22;;;-3.15;81.73
22662;BME280;11497;52.222;21.246;2022-12-18T14:54:31;102661.63;;;-2.78;81.28
22662;BME280;11497;52.222;21.246;2022-12-18T14:57:16;102656.25;;;-2.97;80.95